sensor_id;sensor_type;location;lat;lon;timestamp;temperature;humidity
81161;DHT22;70637;48.514;14.500;2023-11-19T00:02:08;26.50;38.30
81161;DHT22;70637;48.514;14.500;2023-11-19T00:04:37;26.50;38.30
81161;DHT22;70637;48.514;14.500;2023-11-19T00:07:06;26.50;38.30
81161;DHT22;70637;48.514;14.500;2023-11-19T00:09:36;26.50;38.30
81161;DHT22;70637;48.514;14.500;2023-11-19T00:12:04;26.50;38.30
81161;DHT22;70637;48.514;14.500;2023-11-19T00:14:30;26.50;38.30
81161;DHT22;70637;48.514;14.500;2023-11-19T00:16:56;26.50;38.30
81161;DHT22;70637;48.514;14.500;2023-11-19T00:19:21;26.50;38.30
81161;DHT22;70637;48.514;14.500;2023-11-19T00:21:47;26.50;38.40
81161;DHT22;70637;48.514;14.500;2023-11-19T00:24:13;26.50;38.30
81161;DHT22;70637;48.514;14.500;2023-11-19T00:26:41;26.50;38.30
81161;DHT22;70637;48.514;14.500;2023-11-19T00:29:07;26.50;38.30
81161;DHT22;70637;48.514;14.500;2023-11-19T00:31:32;26.50;38.30
81161;DHT22;70637;48.514;14.500;2023-11-19T00:33:58;26.50;38.30
81161;DHT22;70637;48.514;14.500;2023-11-19T00:36:24;26.50;38.30
81161;DHT22;70637;48.514;14.500;2023-11-19T00:38:51;26.50;38.30
81161;DHT22;70637;48.514;14.500;2023-11-19T00:41:18;26.50;38.30
81161;DHT22;70637;48.514;14.500;2023-11-19T00:43:44;26.50;38.30
81161;DHT22;70637;48.514;14.500;2023-11-19T00:46:10;26.50;38.30
81161;DHT22;70637;48.514;14.500;2023-11-19T00:48:36;26.50;38.30
81161;DHT22;70637;48.514;14.500;2023-11-19T00:51:02;26.50;38.30
81161;DHT22;70637;48.514;14.500;2023-11-19T00:53:29;26.50;38.30
81161;DHT22;70637;48.514;14.500;2023-11-19T00:55:55;26.50;38.20
81161;DHT22;70637;48.514;14.500;2023-11-19T00:58:21;26.50;38.30
81161;DHT22;70637;48.514;14.500;2023-11-19T01:00:47;26.50;38.30
81161;DHT22;70637;48.514;14.500;2023-11-19T01:03:13;26.50;38.30
81161;DHT22;70637;48.514;14.500;2023-11-19T01:05:40;26.50;38.30
81161;DHT22;70637;48.514;14.500;2023-11-19T01:08:06;26.50;38.30
81161;DHT22;70637;48.514;14.500;2023-11-19T01:10:32;26.50;38.30
81161;DHT22;70637;48.514;14.500;2023-11-19T01:12:57;26.50;38.30
81161;DHT22;70637;48.514;14.500;2023-11-19T01:15:24;26.50;38.30
81161;DHT22;70637;48.514;14.500;2023-11-19T01:17:49;26.50;38.30
81161;DHT22;70637;48.514;14.500;2023-11-19T01:20:15;26.50;38.30
81161;DHT22;70637;48.514;14.500;2023-11-19T01:22:41;26.50;38.30
81161;DHT22;70637;48.514;14.500;2023-11-19T01:25:07;26.50;38.30
81161;DHT22;70637;48.514;14.500;2023-11-19T01:27:33;26.50;38.30
81161;DHT22;70637;48.514;14.500;2023-11-19T01:30:02;26.50;38.30
81161;DHT22;70637;48.514;14.500;2023-11-19T01:32:35;26.50;38.30
81161;DHT22;70637;48.514;14.500;2023-11-19T01:35:02;26.50;38.30
81161;DHT22;70637;48.514;14.500;2023-11-19T01:37:28;26.40;38.20
81161;DHT22;70637;48.514;14.500;2023-11-19T01:39:53;26.50;38.30
81161;DHT22;70637;48.514;14.500;2023-11-19T01:42:19;26.50;38.30
81161;DHT22;70637;48.514;14.500;2023-11-19T01:44:58;26.40;38.20
81161;DHT22;70637;48.514;14.500;2023-11-19T01:47:25;26.50;38.30
81161;DHT22;70637;48.514;14.500;2023-11-19T01:49:51;26.50;38.30
81161;DHT22;70637;48.514;14.500;2023-11-19T01:52:18;26.50;38.20
81161;DHT22;70637;48.514;14.500;2023-11-19T01:54:44;26.50;38.30
81161;DHT22;70637;48.514;14.500;2023-11-19T01:57:10;26.50;38.20
81161;DHT22;70637;48.514;14.500;2023-11-19T01:59:37;26.40;38.20
81161;DHT22;70637;48.514;14.500;2023-11-19T02:02:06;26.50;38.30
81161;DHT22;70637;48.514;14.500;2023-11-19T02:04:33;26.50;39.20
81161;DHT22;70637;48.514;14.500;2023-11-19T02:07:00;26.50;38.20
81161;DHT22;70637;48.514;14.500;2023-11-19T02:09:26;26.40;38.20
81161;DHT22;70637;48.514;14.500;2023-11-19T02:11:52;26.50;38.30
81161;DHT22;70637;48.514;14.500;2023-11-19T02:14:23;26.50;38.30
81161;DHT22;70637;48.514;14.500;2023-11-19T02:16:51;26.50;38.20
81161;DHT22;70637;48.514;14.500;2023-11-19T02:19:19;26.50;38.30
81161;DHT22;70637;48.514;14.500;2023-11-19T02:21:45;26.50;38.20
81161;DHT22;70637;48.514;14.500;2023-11-19T02:24:13;26.50;38.20
81161;DHT22;70637;48.514;14.500;2023-11-19T02:27:00;26.40;38.20
81161;DHT22;70637;48.514;14.500;2023-11-19T02:29:27;26.50;38.20
81161;DHT22;70637;48.514;14.500;2023-11-19T02:31:53;26.50;38.30
81161;DHT22;70637;48.514;14.500;2023-11-19T02:34:20;26.40;38.20
81161;DHT22;70637;48.514;14.500;2023-11-19T02:36:47;26.40;38.20
81161;DHT22;70637;48.514;14.500;2023-11-19T02:39:13;26.40;38.20
81161;DHT22;70637;48.514;14.500;2023-11-19T02:41:39;26.40;38.20
81161;DHT22;70637;48.514;14.500;2023-11-19T02:44:06;26.40;38.20
81161;DHT22;70637;48.514;14.500;2023-11-19T02:46:32;26.40;38.20
81161;DHT22;70637;48.514;14.500;2023-11-19T02:48:58;26.40;38.20
81161;DHT22;70637;48.514;14.500;2023-11-19T02:51:23;26.40;38.20
81161;DHT22;70637;48.514;14.500;2023-11-19T02:53:49;26.40;38.20
81161;DHT22;70637;48.514;14.500;2023-11-19T02:56:15;26.40;38.20
81161;DHT22;70637;48.514;14.500;2023-11-19T02:58:45;26.40;38.20
81161;DHT22;70637;48.514;14.500;2023-11-19T03:01:12;26.40;38.20
81161;DHT22;70637;48.514;14.500;2023-11-19T03:03:48;26.50;38.30
81161;DHT22;70637;48.514;14.500;2023-11-19T03:06:19;26.40;38.20
81161;DHT22;70637;48.514;14.500;2023-11-19T03:08:45;26.40;38.20
81161;DHT22;70637;48.514;14.500;2023-11-19T03:11:10;26.40;38.20
81161;DHT22;70637;48.514;14.500;2023-11-19T03:13:36;26.40;38.20
81161;DHT22;70637;48.514;14.500;2023-11-19T03:16:02;26.40;38.20
81161;DHT22;70637;48.514;14.500;2023-11-19T03:18:27;26.40;38.20
81161;DHT22;70637;48.514;14.500;2023-11-19T03:20:54;26.40;38.20
81161;DHT22;70637;48.514;14.500;2023-11-19T03:23:19;26.40;38.20
81161;DHT22;70637;48.514;14.500;2023-11-19T03:25:45;26.40;38.20
81161;DHT22;70637;48.514;14.500;2023-11-19T03:28:10;26.40;38.20
81161;DHT22;70637;48.514;14.500;2023-11-19T03:30:36;26.40;38.20
81161;DHT22;70637;48.514;14.500;2023-11-19T03:33:02;26.40;38.20
81161;DHT22;70637;48.514;14.500;2023-11-19T03:35:28;26.40;38.20
81161;DHT22;70637;48.514;14.500;2023-11-19T03:37:54;26.40;38.20
81161;DHT22;70637;48.514;14.500;2023-11-19T03:40:20;26.40;38.20
81161;DHT22;70637;48.514;14.500;2023-11-19T03:42:46;26.40;38.20
81161;DHT22;70637;48.514;14.500;2023-11-19T03:45:12;26.40;38.20
81161;DHT22;70637;48.514;14.500;2023-11-19T03:47:38;26.40;38.20
81161;DHT22;70637;48.514;14.500;2023-11-19T03:50:04;26.40;38.20
81161;DHT22;70637;48.514;14.500;2023-11-19T03:52:30;26.40;38.20
81161;DHT22;70637;48.514;14.500;2023-11-19T03:54:56;26.40;38.20
81161;DHT22;70637;48.514;14.500;2023-11-19T03:57:24;26.40;38.20
81161;DHT22;70637;48.514;14.500;2023-11-19T03:59:50;26.40;38.20
81161;DHT22;70637;48.514;14.500;2023-11-19T04:02:16;26.40;38.20
81161;DHT22;70637;48.514;14.500;2023-11-19T04:04:42;26.40;38.20
81161;DHT22;70637;48.514;14.500;2023-11-19T04:07:08;26.40;38.20
81161;DHT22;70637;48.514;14.500;2023-11-19T04:09:34;26.40;38.20
81161;DHT22;70637;48.514;14.500;2023-11-19T04:12:01;26.40;38.20
81161;DHT22;70637;48.514;14.500;2023-11-19T04:14:27;26.40;38.20
81161;DHT22;70637;48.514;14.500;2023-11-19T04:16:53;26.40;38.10
81161;DHT22;70637;48.514;14.500;2023-11-19T04:19:19;26.40;38.20
81161;DHT22;70637;48.514;14.500;2023-11-19T04:21:45;26.40;38.20
81161;DHT22;70637;48.514;14.500;2023-11-19T04:24:11;26.40;38.20
81161;DHT22;70637;48.514;14.500;2023-11-19T04:26:41;26.40;39.20
81161;DHT22;70637;48.514;14.500;2023-11-19T04:29:09;26.40;38.10
81161;DHT22;70637;48.514;14.500;2023-11-19T04:31:35;26.40;38.20
81161;DHT22;70637;48.514;14.500;2023-11-19T04:34:00;26.40;38.20
81161;DHT22;70637;48.514;14.500;2023-11-19T04:36:26;26.40;38.10
81161;DHT22;70637;48.514;14.500;2023-11-19T04:38:52;26.40;38.20
81161;DHT22;70637;48.514;14.500;2023-11-19T04:41:18;26.40;38.20
81161;DHT22;70637;48.514;14.500;2023-11-19T04:43:43;26.40;38.10
81161;DHT22;70637;48.514;14.500;2023-11-19T04:46:09;26.40;38.20
81161;DHT22;70637;48.514;14.500;2023-11-19T04:48:35;26.40;38.10
81161;DHT22;70637;48.514;14.500;2023-11-19T04:51:01;26.40;38.10
81161;DHT22;70637;48.514;14.500;2023-11-19T04:53:26;26.40;38.20
81161;DHT22;70637;48.514;14.500;2023-11-19T04:55:52;26.40;38.10
81161;DHT22;70637;48.514;14.500;2023-11-19T04:58:17;26.40;38.10
81161;DHT22;70637;48.514;14.500;2023-11-19T05:00:44;26.40;38.20
81161;DHT22;70637;48.514;14.500;2023-11-19T05:03:10;26.40;38.10
81161;DHT22;70637;48.514;14.500;2023-11-19T05:05:36;26.40;38.20
81161;DHT22;70637;48.514;14.500;2023-11-19T05:08:02;26.40;38.20
81161;DHT22;70637;48.514;14.500;2023-11-19T05:10:28;26.40;38.20
81161;DHT22;70637;48.514;14.500;2023-11-19T05:12:53;26.40;38.20
81161;DHT22;70637;48.514;14.500;2023-11-19T05:15:21;26.40;38.10
81161;DHT22;70637;48.514;14.500;2023-11-19T05:17:47;26.40;38.10
81161;DHT22;70637;48.514;14.500;2023-11-19T05:20:13;26.40;38.10
81161;DHT22;70637;48.514;14.500;2023-11-19T05:22:40;26.40;38.10
81161;DHT22;70637;48.514;14.500;2023-11-19T05:25:06;26.40;38.20
81161;DHT22;70637;48.514;14.500;2023-11-19T05:27:32;26.40;38.20
81161;DHT22;70637;48.514;14.500;2023-11-19T05:29:58;26.40;38.20
81161;DHT22;70637;48.514;14.500;2023-11-19T05:32:23;26.40;38.20
81161;DHT22;70637;48.514;14.500;2023-11-19T05:34:49;26.40;38.10
81161;DHT22;70637;48.514;14.500;2023-11-19T05:37:14;26.40;38.10
81161;DHT22;70637;48.514;14.500;2023-11-19T05:39:40;26.40;38.20
81161;DHT22;70637;48.514;14.500;2023-11-19T05:42:06;26.40;38.20
81161;DHT22;70637;48.514;14.500;2023-11-19T05:44:31;26.40;38.20
81161;DHT22;70637;48.514;14.500;2023-11-19T05:46:57;26.40;38.20
81161;DHT22;70637;48.514;14.500;2023-11-19T05:49:23;26.40;38.10
81161;DHT22;70637;48.514;14.500;2023-11-19T05:51:48;26.40;38.20
81161;DHT22;70637;48.514;14.500;2023-11-19T05:54:14;26.40;38.20
81161;DHT22;70637;48.514;14.500;2023-11-19T05:56:40;26.40;38.20
81161;DHT22;70637;48.514;14.500;2023-11-19T05:59:06;26.40;38.10
81161;DHT22;70637;48.514;14.500;2023-11-19T06:01:40;26.40;38.20
81161;DHT22;70637;48.514;14.500;2023-11-19T06:04:07;26.40;38.20
81161;DHT22;70637;48.514;14.500;2023-11-19T06:06:33;26.30;38.10
81161;DHT22;70637;48.514;14.500;2023-11-19T06:08:58;26.40;38.20
81161;DHT22;70637;48.514;14.500;2023-11-19T06:11:24;26.30;38.10
81161;DHT22;70637;48.514;14.500;2023-11-19T06:13:52;26.40;38.20
81161;DHT22;70637;48.514;14.500;2023-11-19T06:16:18;26.30;38.10
81161;DHT22;70637;48.514;14.500;2023-11-19T06:18:44;26.30;38.10
81161;DHT22;70637;48.514;14.500;2023-11-19T06:21:10;26.40;38.20
81161;DHT22;70637;48.514;14.500;2023-11-19T06:23:36;26.40;38.20
81161;DHT22;70637;48.514;14.500;2023-11-19T06:26:02;26.40;38.20
81161;DHT22;70637;48.514;14.500;2023-11-19T06:28:28;26.30;38.10
81161;DHT22;70637;48.514;14.500;2023-11-19T06:30:54;26.40;38.20
81161;DHT22;70637;48.514;14.500;2023-11-19T06:33:20;26.40;38.20
81161;DHT22;70637;48.514;14.500;2023-11-19T06:35:45;26.40;38.20
81161;DHT22;70637;48.514;14.500;2023-11-19T06:38:11;26.40;38.20
81161;DHT22;70637;48.514;14.500;2023-11-19T06:40:37;26.30;38.10
81161;DHT22;70637;48.514;14.500;2023-11-19T06:43:03;26.40;38.20
81161;DHT22;70637;48.514;14.500;2023-11-19T06:45:29;26.30;38.10
81161;DHT22;70637;48.514;14.500;2023-11-19T06:47:55;26.30;38.10
81161;DHT22;70637;48.514;14.500;2023-11-19T06:50:21;26.40;38.30
81161;DHT22;70637;48.514;14.500;2023-11-19T06:52:46;26.30;38.10
81161;DHT22;70637;48.514;14.500;2023-11-19T06:55:12;26.40;38.20
81161;DHT22;70637;48.514;14.500;2023-11-19T06:57:38;26.40;38.30
81161;DHT22;70637;48.514;14.500;2023-11-19T07:00:05;26.30;38.20
81161;DHT22;70637;48.514;14.500;2023-11-19T07:02:31;26.30;38.20
81161;DHT22;70637;48.514;14.500;2023-11-19T07:04:57;26.30;38.20
81161;DHT22;70637;48.514;14.500;2023-11-19T07:07:23;26.30;38.30
81161;DHT22;70637;48.514;14.500;2023-11-19T07:09:48;26.30;38.20
81161;DHT22;70637;48.514;14.500;2023-11-19T07:12:14;26.30;38.20
81161;DHT22;70637;48.514;14.500;2023-11-19T07:14:41;26.40;38.30
81161;DHT22;70637;48.514;14.500;2023-11-19T07:17:07;26.30;38.20
81161;DHT22;70637;48.514;14.500;2023-11-19T07:19:34;26.30;38.30
81161;DHT22;70637;48.514;14.500;2023-11-19T07:22:02;26.30;38.20
81161;DHT22;70637;48.514;14.500;2023-11-19T07:24:27;26.40;38.40
81161;DHT22;70637;48.514;14.500;2023-11-19T07:26:54;26.30;38.30
81161;DHT22;70637;48.514;14.500;2023-11-19T07:32:41;26.30;38.40
81161;DHT22;70637;48.514;14.500;2023-11-19T07:35:08;26.40;38.40
81161;DHT22;70637;48.514;14.500;2023-11-19T07:37:34;26.40;38.30
81161;DHT22;70637;48.514;14.500;2023-11-19T07:40:00;26.40;38.40
81161;DHT22;70637;48.514;14.500;2023-11-19T07:42:25;26.40;38.30
81161;DHT22;70637;48.514;14.500;2023-11-19T07:44:51;26.40;38.40
81161;DHT22;70637;48.514;14.500;2023-11-19T07:47:16;26.40;38.40
81161;DHT22;70637;48.514;14.500;2023-11-19T07:49:42;26.30;38.30
81161;DHT22;70637;48.514;14.500;2023-11-19T07:52:09;26.30;38.30
81161;DHT22;70637;48.514;14.500;2023-11-19T07:54:38;26.40;38.40
81161;DHT22;70637;48.514;14.500;2023-11-19T07:57:03;26.30;38.30
81161;DHT22;70637;48.514;14.500;2023-11-19T07:59:29;26.40;38.40
81161;DHT22;70637;48.514;14.500;2023-11-19T08:01:55;26.40;38.40
81161;DHT22;70637;48.514;14.500;2023-11-19T08:04:20;26.40;38.40
81161;DHT22;70637;48.514;14.500;2023-11-19T08:06:46;26.30;38.40
81161;DHT22;70637;48.514;14.500;2023-11-19T08:09:11;26.40;38.50
81161;DHT22;70637;48.514;14.500;2023-11-19T08:11:43;26.40;38.40
81161;DHT22;70637;48.514;14.500;2023-11-19T08:14:09;26.40;38.50
81161;DHT22;70637;48.514;14.500;2023-11-19T08:16:35;26.40;38.40
81161;DHT22;70637;48.514;14.500;2023-11-19T08:19:01;26.30;38.40
81161;DHT22;70637;48.514;14.500;2023-11-19T08:21:28;26.40;38.50
81161;DHT22;70637;48.514;14.500;2023-11-19T08:23:54;26.30;38.30
81161;DHT22;70637;48.514;14.500;2023-11-19T08:26:20;26.40;38.50
81161;DHT22;70637;48.514;14.500;2023-11-19T08:28:45;26.40;38.50
81161;DHT22;70637;48.514;14.500;2023-11-19T08:31:11;26.40;38.50
81161;DHT22;70637;48.514;14.500;2023-11-19T08:33:37;26.40;38.50
81161;DHT22;70637;48.514;14.500;2023-11-19T08:36:03;26.40;38.50
81161;DHT22;70637;48.514;14.500;2023-11-19T08:38:29;26.30;38.40
81161;DHT22;70637;48.514;14.500;2023-11-19T08:40:55;26.30;38.40
81161;DHT22;70637;48.514;14.500;2023-11-19T08:43:28;26.40;38.50
81161;DHT22;70637;48.514;14.500;2023-11-19T08:45:53;26.30;38.50
81161;DHT22;70637;48.514;14.500;2023-11-19T08:48:19;26.30;38.40
81161;DHT22;70637;48.514;14.500;2023-11-19T08:50:45;26.30;38.40
81161;DHT22;70637;48.514;14.500;2023-11-19T08:53:10;26.40;38.60
81161;DHT22;70637;48.514;14.500;2023-11-19T08:55:36;26.40;38.50
81161;DHT22;70637;48.514;14.500;2023-11-19T08:58:02;26.30;38.50
81161;DHT22;70637;48.514;14.500;2023-11-19T09:00:28;26.40;38.60
81161;DHT22;70637;48.514;14.500;2023-11-19T09:02:53;26.40;38.60
81161;DHT22;70637;48.514;14.500;2023-11-19T09:05:19;26.40;38.50
81161;DHT22;70637;48.514;14.500;2023-11-19T09:07:44;26.40;38.60
81161;DHT22;70637;48.514;14.500;2023-11-19T09:10:10;26.40;38.60
81161;DHT22;70637;48.514;14.500;2023-11-19T09:12:37;26.30;38.50
81161;DHT22;70637;48.514;14.500;2023-11-19T09:15:03;26.40;38.60
81161;DHT22;70637;48.514;14.500;2023-11-19T09:17:30;26.40;38.50
81161;DHT22;70637;48.514;14.500;2023-11-19T09:19:56;26.40;38.60
81161;DHT22;70637;48.514;14.500;2023-11-19T09:22:21;26.30;38.50
81161;DHT22;70637;48.514;14.500;2023-11-19T09:24:48;26.40;38.60
81161;DHT22;70637;48.514;14.500;2023-11-19T09:27:13;26.40;38.60
81161;DHT22;70637;48.514;14.500;2023-11-19T09:29:39;26.40;38.60
81161;DHT22;70637;48.514;14.500;2023-11-19T09:32:05;26.40;38.60
81161;DHT22;70637;48.514;14.500;2023-11-19T09:34:31;26.40;38.60
81161;DHT22;70637;48.514;14.500;2023-11-19T09:36:57;26.40;38.60
81161;DHT22;70637;48.514;14.500;2023-11-19T09:39:22;26.40;38.60
81161;DHT22;70637;48.514;14.500;2023-11-19T09:41:48;26.40;38.60
81161;DHT22;70637;48.514;14.500;2023-11-19T09:44:14;26.40;38.60
81161;DHT22;70637;48.514;14.500;2023-11-19T09:46:43;26.40;38.60
81161;DHT22;70637;48.514;14.500;2023-11-19T09:49:10;26.40;38.50
81161;DHT22;70637;48.514;14.500;2023-11-19T09:51:37;26.40;38.60
81161;DHT22;70637;48.514;14.500;2023-11-19T09:54:03;26.40;38.50
81161;DHT22;70637;48.514;14.500;2023-11-19T09:56:33;26.40;38.50
81161;DHT22;70637;48.514;14.500;2023-11-19T09:59:01;26.40;38.50
81161;DHT22;70637;48.514;14.500;2023-11-19T10:01:27;26.40;38.60
81161;DHT22;70637;48.514;14.500;2023-11-19T10:03:55;26.40;38.60
81161;DHT22;70637;48.514;14.500;2023-11-19T10:06:21;26.40;38.50
81161;DHT22;70637;48.514;14.500;2023-11-19T10:08:48;26.40;38.50
81161;DHT22;70637;48.514;14.500;2023-11-19T10:11:13;26.40;38.60
81161;DHT22;70637;48.514;14.500;2023-11-19T10:13:40;26.40;38.60
81161;DHT22;70637;48.514;14.500;2023-11-19T10:16:09;26.40;38.50
81161;DHT22;70637;48.514;14.500;2023-11-19T10:18:34;26.40;38.60
81161;DHT22;70637;48.514;14.500;2023-11-19T10:21:06;26.40;38.50
81161;DHT22;70637;48.514;14.500;2023-11-19T10:23:48;26.40;38.50
81161;DHT22;70637;48.514;14.500;2023-11-19T10:26:14;26.40;38.50
81161;DHT22;70637;48.514;14.500;2023-11-19T10:28:40;26.40;38.50
81161;DHT22;70637;48.514;14.500;2023-11-19T10:31:09;26.40;38.60
81161;DHT22;70637;48.514;14.500;2023-11-19T10:33:35;26.30;38.50
81161;DHT22;70637;48.514;14.500;2023-11-19T10:36:00;26.40;39.60
81161;DHT22;70637;48.514;14.500;2023-11-19T10:38:26;26.40;38.60
81161;DHT22;70637;48.514;14.500;2023-11-19T10:40:52;26.40;38.60
81161;DHT22;70637;48.514;14.500;2023-11-19T10:43:19;26.40;38.60
81161;DHT22;70637;48.514;14.500;2023-11-19T10:45:46;26.40;38.60
81161;DHT22;70637;48.514;14.500;2023-11-19T10:48:11;26.40;38.60
81161;DHT22;70637;48.514;14.500;2023-11-19T10:50:39;26.40;38.50
81161;DHT22;70637;48.514;14.500;2023-11-19T10:53:06;26.40;38.60
81161;DHT22;70637;48.514;14.500;2023-11-19T10:55:34;26.40;38.60
81161;DHT22;70637;48.514;14.500;2023-11-19T10:58:04;26.40;38.60
81161;DHT22;70637;48.514;14.500;2023-11-19T11:03:17;26.40;38.50
81161;DHT22;70637;48.514;14.500;2023-11-19T11:05:43;26.40;38.60
81161;DHT22;70637;48.514;14.500;2023-11-19T11:08:13;26.40;38.50
81161;DHT22;70637;48.514;14.500;2023-11-19T11:10:44;26.40;38.60
81161;DHT22;70637;48.514;14.500;2023-11-19T11:13:10;26.40;38.60
81161;DHT22;70637;48.514;14.500;2023-11-19T11:15:37;26.40;38.60
81161;DHT22;70637;48.514;14.500;2023-11-19T11:18:03;26.40;38.60
81161;DHT22;70637;48.514;14.500;2023-11-19T11:20:31;26.40;38.60
81161;DHT22;70637;48.514;14.500;2023-11-19T11:28:24;26.40;38.60
81161;DHT22;70637;48.514;14.500;2023-11-19T11:31:41;26.40;38.60
81161;DHT22;70637;48.514;14.500;2023-11-19T11:39:46;26.40;38.60
81161;DHT22;70637;48.514;14.500;2023-11-19T11:45:06;26.30;38.50
81161;DHT22;70637;48.514;14.500;2023-11-19T11:50:14;26.30;38.50
81161;DHT22;70637;48.514;14.500;2023-11-19T11:55:52;26.30;38.50
81161;DHT22;70637;48.514;14.500;2023-11-19T11:58:21;26.30;38.50
81161;DHT22;70637;48.514;14.500;2023-11-19T12:00:51;26.30;38.50
81161;DHT22;70637;48.514;14.500;2023-11-19T12:03:20;26.40;38.60
81161;DHT22;70637;48.514;14.500;2023-11-19T12:05:47;26.40;38.60
81161;DHT22;70637;48.514;14.500;2023-11-19T12:08:14;26.40;38.60
81161;DHT22;70637;48.514;14.500;2023-11-19T12:13:14;26.40;38.60
81161;DHT22;70637;48.514;14.500;2023-11-19T12:18:31;26.40;38.60
81161;DHT22;70637;48.514;14.500;2023-11-19T12:20:58;26.40;38.60
81161;DHT22;70637;48.514;14.500;2023-11-19T12:23:30;26.30;38.50
81161;DHT22;70637;48.514;14.500;2023-11-19T12:25:57;26.40;38.60
81161;DHT22;70637;48.514;14.500;2023-11-19T12:28:22;26.40;38.60
81161;DHT22;70637;48.514;14.500;2023-11-19T12:30:50;26.30;38.50
81161;DHT22;70637;48.514;14.500;2023-11-19T12:33:16;26.40;38.50
81161;DHT22;70637;48.514;14.500;2023-11-19T12:35:43;26.40;38.60
81161;DHT22;70637;48.514;14.500;2023-11-19T12:38:24;26.40;38.60
81161;DHT22;70637;48.514;14.500;2023-11-19T12:41:06;26.40;38.60
81161;DHT22;70637;48.514;14.500;2023-11-19T12:43:33;26.40;38.60
81161;DHT22;70637;48.514;14.500;2023-11-19T12:48:46;26.40;38.50
81161;DHT22;70637;48.514;14.500;2023-11-19T12:51:12;26.40;38.60
81161;DHT22;70637;48.514;14.500;2023-11-19T12:53:51;26.40;38.60
81161;DHT22;70637;48.514;14.500;2023-11-19T12:56:21;26.40;38.60
81161;DHT22;70637;48.514;14.500;2023-11-19T12:58:47;26.40;38.60
81161;DHT22;70637;48.514;14.500;2023-11-19T13:01:20;26.40;38.60
81161;DHT22;70637;48.514;14.500;2023-11-19T13:03:47;26.40;38.60
81161;DHT22;70637;48.514;14.500;2023-11-19T13:06:14;26.40;38.60
81161;DHT22;70637;48.514;14.500;2023-11-19T13:08:46;26.40;38.60
81161;DHT22;70637;48.514;14.500;2023-11-19T13:11:14;26.40;38.50
81161;DHT22;70637;48.514;14.500;2023-11-19T13:16:25;26.40;38.60
81161;DHT22;70637;48.514;14.500;2023-11-19T13:18:51;26.40;38.60
81161;DHT22;70637;48.514;14.500;2023-11-19T13:21:17;26.40;38.60
81161;DHT22;70637;48.514;14.500;2023-11-19T13:23:43;26.30;38.40
81161;DHT22;70637;48.514;14.500;2023-11-19T13:26:09;26.40;38.60
81161;DHT22;70637;48.514;14.500;2023-11-19T13:28:36;26.40;38.60
81161;DHT22;70637;48.514;14.500;2023-11-19T13:31:02;26.40;38.60
81161;DHT22;70637;48.514;14.500;2023-11-19T13:33:28;26.40;38.50
81161;DHT22;70637;48.514;14.500;2023-11-19T13:35:55;26.40;38.50
81161;DHT22;70637;48.514;14.500;2023-11-19T13:38:20;26.40;38.60
81161;DHT22;70637;48.514;14.500;2023-11-19T13:40:46;26.40;38.50
81161;DHT22;70637;48.514;14.500;2023-11-19T13:43:12;26.40;38.50
81161;DHT22;70637;48.514;14.500;2023-11-19T13:45:37;26.40;38.50
81161;DHT22;70637;48.514;14.500;2023-11-19T13:48:03;26.40;38.50
81161;DHT22;70637;48.514;14.500;2023-11-19T13:50:29;26.40;38.50
81161;DHT22;70637;48.514;14.500;2023-11-19T13:52:55;26.40;38.50
81161;DHT22;70637;48.514;14.500;2023-11-19T13:55:21;26.40;38.50
81161;DHT22;70637;48.514;14.500;2023-11-19T13:57:47;26.40;38.50
81161;DHT22;70637;48.514;14.500;2023-11-19T14:00:14;26.40;38.50
81161;DHT22;70637;48.514;14.500;2023-11-19T14:02:45;26.40;38.50
81161;DHT22;70637;48.514;14.500;2023-11-19T14:05:12;26.40;38.50
81161;DHT22;70637;48.514;14.500;2023-11-19T14:07:39;26.40;38.50
81161;DHT22;70637;48.514;14.500;2023-11-19T14:10:05;26.40;38.50
81161;DHT22;70637;48.514;14.500;2023-11-19T14:12:32;26.40;38.50
81161;DHT22;70637;48.514;14.500;2023-11-19T14:14:58;26.40;38.50
81161;DHT22;70637;48.514;14.500;2023-11-19T14:17:25;26.40;38.50
81161;DHT22;70637;48.514;14.500;2023-11-19T14:19:51;26.40;38.50
81161;DHT22;70637;48.514;14.500;2023-11-19T14:22:17;26.40;38.50
81161;DHT22;70637;48.514;14.500;2023-11-19T14:24:44;26.40;38.50
81161;DHT22;70637;48.514;14.500;2023-11-19T14:27:10;26.40;38.50
81161;DHT22;70637;48.514;14.500;2023-11-19T14:29:36;26.40;38.50
81161;DHT22;70637;48.514;14.500;2023-11-19T14:32:03;26.40;38.50
81161;DHT22;70637;48.514;14.500;2023-11-19T14:34:31;26.40;38.60
81161;DHT22;70637;48.514;14.500;2023-11-19T14:36:58;26.40;38.50
81161;DHT22;70637;48.514;14.500;2023-11-19T14:39:26;26.40;38.50
81161;DHT22;70637;48.514;14.500;2023-11-19T14:41:51;26.30;38.40
81161;DHT22;70637;48.514;14.500;2023-11-19T14:44:18;26.40;38.50
81161;DHT22;70637;48.514;14.500;2023-11-19T14:46:45;26.40;38.50
81161;DHT22;70637;48.514;14.500;2023-11-19T14:49:11;26.40;38.50
81161;DHT22;70637;48.514;14.500;2023-11-19T14:51:38;26.40;38.50
81161;DHT22;70637;48.514;14.500;2023-11-19T14:54:04;26.40;38.50
81161;DHT22;70637;48.514;14.500;2023-11-19T14:56:30;26.40;38.50
81161;DHT22;70637;48.514;14.500;2023-11-19T14:58:55;26.40;38.50
81161;DHT22;70637;48.514;14.500;2023-11-19T15:01:21;26.40;38.50
81161;DHT22;70637;48.514;14.500;2023-11-19T15:03:47;26.40;38.50
81161;DHT22;70637;48.514;14.500;2023-11-19T15:06:12;26.40;38.50
81161;DHT22;70637;48.514;14.500;2023-11-19T15:08:39;26.40;38.50
81161;DHT22;70637;48.514;14.500;2023-11-19T15:11:05;26.40;38.50
81161;DHT22;70637;48.514;14.500;2023-11-19T15:13:37;26.40;38.50
81161;DHT22;70637;48.514;14.500;2023-11-19T15:16:03;26.40;38.40
81161;DHT22;70637;48.514;14.500;2023-11-19T15:18:31;26.40;38.50
81161;DHT22;70637;48.514;14.500;2023-11-19T15:20:57;26.40;38.50
81161;DHT22;70637;48.514;14.500;2023-11-19T15:23:22;26.40;38.50
81161;DHT22;70637;48.514;14.500;2023-11-19T15:25:48;26.40;38.50
81161;DHT22;70637;48.514;14.500;2023-11-19T15:28:15;26.40;38.50
81161;DHT22;70637;48.514;14.500;2023-11-19T15:30:40;26.40;38.50
81161;DHT22;70637;48.514;14.500;2023-11-19T15:33:06;26.40;38.50
81161;DHT22;70637;48.514;14.500;2023-11-19T15:35:34;26.40;38.50
81161;DHT22;70637;48.514;14.500;2023-11-19T15:38:00;26.40;38.50
81161;DHT22;70637;48.514;14.500;2023-11-19T15:40:25;26.30;38.40
81161;DHT22;70637;48.514;14.500;2023-11-19T15:42:53;26.40;39.70
81161;DHT22;70637;48.514;14.500;2023-11-19T15:45:20;26.40;38.50
81161;DHT22;70637;48.514;14.500;2023-11-19T15:47:46;26.40;38.50
81161;DHT22;70637;48.514;14.500;2023-11-19T15:50:12;26.40;38.50